Time;durP1;ratioP1;P1;durP2;ratioP2;P2;SDS_P1;SDS_P2;PMS_P1;PMS_P2;Temp;Humidity;BMP_temperature;BMP_pressure;BME280_temperature;BME280_humidity;BME280_pressure;Samples;Min_cycle;Max_cycle;Signal;HPM_P1;HPM_P2
2024/01/07 00:00:38;;;;;;;4.72;2.97;;;0.80;96.50;;;;;;6211292;23;20506;-64
2024/01/07 00:03:24;;;;;;;4.47;2.45;;;0.80;96.60;;;;;;6210153;23;20511;-65
2024/01/07 00:06:10;;;;;;;5.07;2.88;;;0.80;96.60;;;;;;6210175;23;20393;-64
2024/01/07 00:08:56;;;;;;;5.95;2.97;;;0.80;96.70;;;;;;6210191;23;20004;-65
2024/01/07 00:11:42;;;;;;;4.68;2.78;;;0.80;96.70;;;;;;6212045;23;20013;-64
2024/01/07 00:14:28;;;;;;;7.45;3.58;;;0.80;96.70;;;;;;6209642;23;20024;-64
2024/01/07 00:17:14;;;;;;;7.47;2.72;;;0.80;96.80;;;;;;6209751;23;20096;-64
2024/01/07 00:20:00;;;;;;;6.55;3.05;;;0.80;96.70;;;;;;6211987;23;20016;-64
2024/01/07 00:22:46;;;;;;;5.95;3.40;;;0.80;96.70;;;;;;6211102;23;20012;-64
2024/01/07 00:25:32;;;;;;;9.23;4.25;;;0.80;96.60;;;;;;6210563;23;20020;-64
2024/01/07 00:28:18;;;;;;;7.43;3.15;;;0.70;96.50;;;;;;6209965;23;20013;-64
2024/01/07 00:31:04;;;;;;;6.47;3.58;;;0.70;96.60;;;;;;6210900;23;20087;-64
2024/01/07 00:33:50;;;;;;;4.30;2.80;;;0.80;96.70;;;;;;6209440;23;20338;-64
2024/01/07 00:36:36;;;;;;;12.40;3.60;;;0.80;96.70;;;;;;6210271;23;20012;-64
2024/01/07 00:39:22;;;;;;;5.95;3.10;;;0.80;96.70;;;;;;6209841;23;20011;-64
2024/01/07 00:42:07;;;;;;;7.68;3.90;;;0.70;96.70;;;;;;6210251;23;20015;-64
2024/01/07 00:44:53;;;;;;;10.15;3.50;;;0.70;96.60;;;;;;6208586;23;20042;-65
2024/01/07 00:47:39;;;;;;;10.00;3.53;;;0.70;96.70;;;;;;6210619;23;20009;-65
2024/01/07 00:50:25;;;;;;;5.97;3.45;;;0.60;96.50;;;;;;6210573;23;20019;-65
2024/01/07 00:53:11;;;;;;;5.65;2.47;;;0.60;96.60;;;;;;6190113;23;20025;-65
2024/01/07 00:55:57;;;;;;;4.47;2.75;;;0.60;96.50;;;;;;6209598;23;20016;-65
2024/01/07 00:58:43;;;;;;;4.45;2.72;;;0.60;96.40;;;;;;6208635;23;20013;-65
2024/01/07 01:01:29;;;;;;;3.55;2.10;;;0.50;96.10;;;;;;6209582;23;20012;-65
2024/01/07 01:04:15;;;;;;;3.90;2.22;;;0.50;96.20;;;;;;6212396;23;20095;-65
2024/01/07 01:07:01;;;;;;;4.85;2.50;;;0.50;96.10;;;;;;6212073;23;20012;-65
2024/01/07 01:09:47;;;;;;;5.57;2.80;;;0.50;96.10;;;;;;6209263;23;20020;-65
2024/01/07 01:12:33;;;;;;;4.20;1.90;;;0.50;95.90;;;;;;6187547;23;20009;-65
2024/01/07 01:15:19;;;;;;;4.82;2.50;;;0.50;96.20;;;;;;6187949;23;20016;-64
2024/01/07 01:18:05;;;;;;;4.18;2.00;;;0.40;95.90;;;;;;6188508;23;20052;-65
2024/01/07 01:20:51;;;;;;;4.35;2.47;;;0.40;95.70;;;;;;6210433;23;20012;-65
2024/01/07 01:23:37;;;;;;;3.85;2.10;;;0.40;95.40;;;;;;6212203;23;20016;-64
2024/01/07 01:26:22;;;;;;;3.72;1.95;;;0.30;95.30;;;;;;6238014;23;20024;-64
2024/01/07 01:29:10;;;;;;;2.85;1.55;;;0.20;95.20;;;;;;6227810;23;20012;-64
2024/01/07 01:31:57;;;;;;;2.70;1.70;;;0.20;95.30;;;;;;6211062;23;20004;-64
2024/01/07 01:34:43;;;;;;;2.72;1.77;;;0.20;95.30;;;;;;6209733;23;20512;-65
2024/01/07 01:37:28;;;;;;;4.72;2.05;;;0.30;95.40;;;;;;6209608;23;20276;-64
2024/01/07 01:40:17;;;;;;;6.88;2.35;;;0.20;94.90;;;;;;6208979;23;20369;-64
2024/01/07 01:43:03;;;;;;;4.85;1.98;;;0.20;95.00;;;;;;6209494;23;20019;-64
2024/01/07 01:45:49;;;;;;;3.97;1.95;;;0.10;95.00;;;;;;6209595;23;20067;-65
2024/01/07 01:48:36;;;;;;;4.85;2.00;;;0.10;95.20;;;;;;6210953;23;20074;-65
2024/01/07 01:51:22;;;;;;;3.88;2.17;;;0.10;94.80;;;;;;6209509;23;20288;-64
2024/01/07 01:54:08;;;;;;;4.20;2.30;;;0.10;95.00;;;;;;6208738;23;20234;-64
2024/01/07 01:56:55;;;;;;;4.55;2.30;;;0.10;95.00;;;;;;6187845;23;20023;-65
2024/01/07 01:59:43;;;;;;;4.40;2.63;;;0.10;95.10;;;;;;6209176;23;20012;-64
2024/01/07 02:02:30;;;;;;;3.80;2.28;;;0.10;95.10;;;;;;6188653;23;20013;-65
2024/01/07 02:05:16;;;;;;;6.40;2.42;;;0.10;95.10;;;;;;6209549;23;20004;-65
2024/01/07 02:08:04;;;;;;;4.40;2.33;;;0.00;95.00;;;;;;6209144;23;20023;-64
2024/01/07 02:10:50;;;;;;;4.70;2.42;;;0.00;95.00;;;;;;6210466;23;20013;-65
2024/01/07 02:13:35;;;;;;;3.50;2.15;;;0.00;94.90;;;;;;6209263;23;20020;-65
2024/01/07 02:16:21;;;;;;;4.15;2.35;;;0.00;94.90;;;;;;6210599;23;20012;-64
2024/01/07 02:19:08;;;;;;;4.55;2.20;;;-0.10;94.70;;;;;;6210167;23;20091;-64
2024/01/07 02:21:53;;;;;;;4.40;2.22;;;-0.10;94.80;;;;;;6209478;23;20318;-65
2024/01/07 02:24:39;;;;;;;3.67;1.70;;;-0.10;94.90;;;;;;6209041;23;20067;-65
2024/01/07 02:27:25;;;;;;;4.10;2.47;;;0.00;94.80;;;;;;6208384;23;20020;-64
2024/01/07 02:30:11;;;;;;;3.15;1.90;;;-0.10;94.80;;;;;;6208423;23;20023;-65
2024/01/07 02:33:02;;;;;;;5.18;1.90;;;-0.20;94.80;;;;;;6188845;23;20024;-66
2024/01/07 02:35:48;;;;;;;3.78;2.00;;;-0.10;94.80;;;;;;6209737;23;20302;-66
2024/01/07 02:38:34;;;;;;;2.92;1.48;;;-0.20;94.80;;;;;;6189095;23;20012;-66
2024/01/07 02:41:21;;;;;;;4.10;1.90;;;-0.30;94.60;;;;;;6214857;22;20009;-65
2024/01/07 02:44:06;;;;;;;3.00;1.85;;;-0.30;94.70;;;;;;6212321;23;20011;-66
2024/01/07 02:46:52;;;;;;;3.47;1.73;;;-0.40;94.70;;;;;;6211227;23;20051;-66
2024/01/07 02:49:38;;;;;;;3.67;1.90;;;-0.40;94.70;;;;;;6212709;23;20040;-65
2024/01/07 02:52:24;;;;;;;6.13;2.10;;;-0.50;94.50;;;;;;6209815;23;20009;-66
2024/01/07 02:55:10;;;;;;;4.78;2.00;;;-0.50;94.60;;;;;;6210961;23;20016;-65
2024/01/07 02:57:56;;;;;;;3.95;2.17;;;-0.60;94.60;;;;;;6210550;23;20009;-66
2024/01/07 03:00:42;;;;;;;2.22;1.98;;;-0.60;94.60;;;;;;6211149;23;20028;-65
2024/01/07 03:03:28;;;;;;;5.47;1.88;;;-0.60;94.60;;;;;;6209881;23;20514;-65
2024/01/07 03:06:14;;;;;;;2.88;1.73;;;-0.70;94.60;;;;;;6210255;23;20028;-66
2024/01/07 03:09:00;;;;;;;3.80;2.10;;;-0.80;94.70;;;;;;6212703;23;20016;-66
2024/01/07 03:11:45;;;;;;;2.78;1.60;;;-0.80;94.80;;;;;;6209781;23;20013;-65
2024/01/07 03:14:31;;;;;;;3.17;1.70;;;-0.80;94.80;;;;;;6210878;23;20026;-65
2024/01/07 03:17:17;;;;;;;3.35;1.85;;;-0.70;94.90;;;;;;6210947;23;20009;-65
2024/01/07 03:20:03;;;;;;;2.85;2.03;;;-0.70;94.90;;;;;;6210642;23;20437;-65
2024/01/07 03:22:49;;;;;;;3.97;2.25;;;-0.70;95.00;;;;;;6209512;23;20094;-65
2024/01/07 03:25:35;;;;;;;3.55;2.03;;;-0.70;94.90;;;;;;6211548;23;20016;-66
2024/01/07 03:28:21;;;;;;;3.72;2.33;;;-0.80;94.70;;;;;;6191420;23;20028;-66
2024/01/07 03:31:15;;;;;;;5.30;2.38;;;-0.80;94.80;;;;;;6212282;23;20502;-66
2024/01/07 03:34:01;;;;;;;3.13;2.08;;;-0.90;94.70;;;;;;6210387;23;20405;-66
2024/01/07 03:36:47;;;;;;;2.95;1.80;;;-0.90;94.80;;;;;;6209589;23;20433;-66
2024/01/07 03:39:33;;;;;;;4.68;2.53;;;-0.90;94.90;;;;;;6211826;23;20355;-66
2024/01/07 03:42:20;;;;;;;3.33;1.77;;;-0.90;94.90;;;;;;6211403;23;20005;-66
2024/01/07 03:45:06;;;;;;;4.72;2.17;;;-1.00;94.90;;;;;;6188171;23;20304;-66
2024/01/07 03:47:52;;;;;;;3.63;2.50;;;-1.00;94.90;;;;;;6211704;23;20147;-66
2024/01/07 03:50:39;;;;;;;4.35;1.90;;;-1.00;94.90;;;;;;6210590;23;20065;-66
2024/01/07 03:53:25;;;;;;;4.40;2.30;;;-1.00;94.90;;;;;;6210433;23;20468;-66
2024/01/07 03:56:11;;;;;;;3.97;2.15;;;-0.90;95.00;;;;;;6209963;23;20012;-66
2024/01/07 03:58:57;;;;;;;3.50;2.17;;;-1.00;94.90;;;;;;6210220;23;20074;-67
2024/01/07 04:01:43;;;;;;;4.22;2.58;;;-1.00;94.90;;;;;;6210671;23;20016;-67
2024/01/07 04:04:29;;;;;;;5.95;2.42;;;-1.00;94.80;;;;;;6214463;22;20012;-67
2024/01/07 04:07:15;;;;;;;6.50;2.70;;;-1.00;94.80;;;;;;6210549;23;20020;-66
2024/01/07 04:10:01;;;;;;;3.08;1.92;;;-1.00;94.90;;;;;;6210434;23;20020;-65
2024/01/07 04:12:47;;;;;;;3.30;2.03;;;-1.00;94.80;;;;;;6209746;23;20438;-65
2024/01/07 04:15:33;;;;;;;4.88;2.00;;;-1.00;94.90;;;;;;6210058;23;20008;-65
2024/01/07 04:18:19;;;;;;;3.30;1.60;;;-1.00;95.00;;;;;;6210569;23;20095;-65
2024/01/07 04:21:08;;;;;;;3.00;2.10;;;-1.00;94.70;;;;;;6210334;23;20024;-64
2024/01/07 04:23:54;;;;;;;3.97;2.80;;;-1.10;94.70;;;;;;6186598;23;20094;-68
2024/01/07 04:26:40;;;;;;;3.50;1.90;;;-1.10;94.60;;;;;;6210437;23;20024;-69
2024/01/07 04:29:26;;;;;;;2.97;1.90;;;-1.10;94.70;;;;;;6207784;23;20319;-68
2024/01/07 04:32:12;;;;;;;3.55;1.88;;;-1.10;94.60;;;;;;6210914;23;20008;-68
2024/01/07 04:34:58;;;;;;;3.67;2.00;;;-1.10;94.70;;;;;;6209465;23;20025;-68
2024/01/07 04:37:44;;;;;;;3.00;1.90;;;-1.10;94.70;;;;;;6219942;23;20375;-68
2024/01/07 04:40:30;;;;;;;3.78;2.03;;;-1.10;94.60;;;;;;6235976;23;19993;-68
2024/01/07 04:43:16;;;;;;;2.72;1.70;;;-1.10;94.60;;;;;;6222973;23;20113;-68
2024/01/07 04:46:02;;;;;;;3.28;1.90;;;-1.10;94.70;;;;;;6218515;23;20083;-68
2024/01/07 04:48:48;;;;;;;4.30;1.73;;;-1.10;94.80;;;;;;6211330;23;20013;-68
2024/01/07 04:51:34;;;;;;;5.68;2.03;;;-1.10;94.80;;;;;;6211295;23;20013;-68
2024/01/07 04:54:20;;;;;;;4.13;1.95;;;-1.10;94.70;;;;;;6211123;23;20086;-68
2024/01/07 08:20:55;;;;;;;5.82;3.10;;;0.00;95.00;;;;;;6196616;23;20028;-63
2024/01/07 08:23:44;;;;;;;3.72;2.40;;;0.10;95.00;;;;;;6183151;23;20009;-63
2024/01/07 08:26:31;;;;;;;3.10;1.98;;;0.20;95.00;;;;;;6181367;23;20013;-65
2024/01/07 08:29:17;;;;;;;5.28;2.45;;;0.10;94.90;;;;;;6180534;23;20012;-64
2024/01/07 08:32:03;;;;;;;4.35;2.05;;;0.10;94.90;;;;;;6182955;23;20005;-64
2024/01/07 08:34:49;;;;;;;3.15;1.98;;;0.10;94.90;;;;;;6181753;23;20464;-64
2024/01/07 08:37:35;;;;;;;4.63;2.50;;;0.20;94.90;;;;;;6183532;23;20013;-65
2024/01/07 08:40:21;;;;;;;5.13;2.58;;;0.20;94.80;;;;;;6182346;23;20434;-64
2024/01/07 08:43:07;;;;;;;4.18;2.67;;;0.20;94.80;;;;;;6183430;23;20009;-64
2024/01/07 08:45:53;;;;;;;4.68;2.70;;;0.30;94.90;;;;;;6181422;23;20037;-64
2024/01/07 08:48:39;;;;;;;7.15;2.70;;;0.40;95.00;;;;;;6182816;23;20011;-61
2024/01/07 08:51:25;;;;;;;3.50;2.47;;;0.50;95.00;;;;;;6182910;23;20060;-63
2024/01/07 08:54:11;;;;;;;4.53;2.83;;;0.60;95.00;;;;;;6183205;23;20449;-62
2024/01/07 08:56:57;;;;;;;5.22;2.78;;;0.70;95.00;;;;;;6183307;23;20032;-62
2024/01/07 08:59:43;;;;;;;3.50;2.28;;;0.70;95.00;;;;;;6183260;23;20020;-62
2024/01/07 09:02:28;;;;;;;5.13;2.63;;;0.70;94.90;;;;;;6181401;23;20013;-62
2024/01/07 09:05:14;;;;;;;3.40;2.40;;;0.70;94.90;;;;;;6182830;23;20013;-62
2024/01/07 09:08:00;;;;;;;5.65;2.60;;;0.80;94.90;;;;;;6182667;23;20013;-62
2024/01/07 09:10:46;;;;;;;4.20;2.35;;;0.80;94.90;;;;;;6183169;23;20097;-62
2024/01/07 09:13:33;;;;;;;7.22;3.60;;;0.90;94.90;;;;;;6182435;23;20112;-62
2024/01/07 09:16:19;;;;;;;3.85;2.47;;;0.90;94.90;;;;;;6180385;23;20464;-62
2024/01/07 09:19:04;;;;;;;5.45;3.17;;;0.90;94.90;;;;;;6183574;23;20012;-62
2024/01/07 09:21:50;;;;;;;5.97;2.50;;;1.00;94.90;;;;;;6198774;23;20369;-60
2024/01/07 09:24:36;;;;;;;5.63;3.47;;;1.00;94.80;;;;;;6209619;23;20537;-59
2024/01/07 09:27:22;;;;;;;5.38;2.88;;;1.00;94.80;;;;;;6209612;23;20422;-60
2024/01/07 09:30:11;;;;;;;4.35;2.65;;;1.00;94.80;;;;;;6211164;23;20012;-61
2024/01/07 09:32:57;;;;;;;5.40;3.38;;;1.00;94.70;;;;;;6210084;23;20016;-59
2024/01/07 09:35:43;;;;;;;5.25;2.80;;;1.10;94.80;;;;;;6208301;23;20016;-60
2024/01/07 09:38:29;;;;;;;5.93;3.67;;;1.20;94.90;;;;;;6209931;23;20043;-61
2024/01/07 09:41:15;;;;;;;5.53;3.40;;;1.20;94.80;;;;;;6208050;23;20090;-60
2024/01/07 09:44:03;;;;;;;5.82;3.72;;;1.20;94.90;;;;;;6209939;23;20095;-60
2024/01/07 09:46:51;;;;;;;6.13;3.30;;;1.20;94.80;;;;;;6209353;23;20070;-60
2024/01/07 09:49:42;;;;;;;5.85;3.65;;;1.20;94.90;;;;;;6211201;23;20019;-60
2024/01/07 09:52:28;;;;;;;6.05;3.92;;;1.20;94.80;;;;;;6209936;23;20426;-60
2024/01/07 09:55:32;;;;;;;6.38;4.00;;;1.30;94.90;;;;;;6208491;23;20103;-60
2024/01/07 09:58:18;;;;;;;6.20;4.22;;;1.30;95.00;;;;;;6209485;23;20009;-59
2024/01/07 10:01:05;;;;;;;5.35;3.60;;;1.30;95.10;;;;;;6208439;23;20009;-59
2024/01/07 10:03:51;;;;;;;5.95;3.60;;;1.30;95.10;;;;;;6187036;23;20394;-60
2024/01/07 10:06:37;;;;;;;6.78;3.95;;;1.40;95.10;;;;;;6208294;23;20421;-60
2024/01/07 10:09:27;;;;;;;7.25;4.10;;;1.40;95.00;;;;;;6206147;23;20013;-60
2024/01/07 10:12:14;;;;;;;5.95;3.55;;;1.40;94.90;;;;;;6209579;23;20107;-60
2024/01/07 10:15:00;;;;;;;6.68;3.97;;;1.40;94.90;;;;;;6210255;23;20113;-60
2024/01/07 10:17:46;;;;;;;6.32;4.07;;;1.30;94.90;;;;;;6208754;23;20017;-60
2024/01/07 10:20:35;;;;;;;6.35;4.18;;;1.30;95.00;;;;;;6209234;23;20009;-60
2024/01/07 10:23:21;;;;;;;7.07;4.05;;;1.20;94.90;;;;;;6210547;23;20044;-60
2024/01/07 10:26:07;;;;;;;10.43;5.65;;;1.20;95.00;;;;;;6210932;23;20114;-60
2024/01/07 10:28:53;;;;;;;9.93;4.97;;;1.30;95.10;;;;;;6187377;23;20075;-60
2024/01/07 10:31:40;;;;;;;7.88;4.82;;;1.30;95.10;;;;;;6208028;23;20036;-61
2024/01/07 10:34:28;;;;;;;8.55;5.10;;;1.30;95.00;;;;;;6207071;23;20067;-60
2024/01/07 10:37:14;;;;;;;7.47;4.57;;;1.30;95.10;;;;;;6211593;23;20015;-60
2024/01/07 10:40:03;;;;;;;7.07;4.63;;;1.30;95.10;;;;;;6209103;23;20017;-61
2024/01/07 10:42:51;;;;;;;7.47;4.82;;;1.30;95.10;;;;;;6211743;23;20015;-61
2024/01/07 10:45:37;;;;;;;8.18;4.68;;;1.30;95.20;;;;;;6210828;23;20008;-61
2024/01/07 10:48:28;;;;;;;7.93;5.05;;;1.30;95.30;;;;;;6208411;23;20385;-61
2024/01/07 10:51:15;;;;;;;8.00;5.07;;;1.40;95.40;;;;;;6209818;23;20067;-61
2024/01/07 10:54:01;;;;;;;8.43;4.80;;;1.40;95.40;;;;;;6210310;23;20095;-61
2024/01/07 10:56:50;;;;;;;8.27;5.15;;;1.40;95.40;;;;;;6224551;23;20047;-61
2024/01/07 10:59:36;;;;;;;9.05;6.05;;;1.40;95.30;;;;;;6229867;23;20016;-62
2024/01/07 11:02:23;;;;;;;8.82;6.15;;;1.30;95.40;;;;;;6211718;23;20008;-61
2024/01/07 11:05:20;;;;;;;9.43;6.10;;;1.40;95.50;;;;;;6188901;23;20017;-62
2024/01/07 11:08:19;;;;;;;9.82;5.40;;;1.40;95.50;;;;;;6209386;23;20492;-61
2024/01/07 11:11:12;;;;;;;9.43;4.63;;;1.50;95.50;;;;;;6210700;23;20035;-61
2024/01/07 11:13:58;;;;;;;9.23;4.63;;;1.50;95.40;;;;;;6213018;23;20020;-61
2024/01/07 11:16:44;;;;;;;7.78;4.72;;;1.50;95.40;;;;;;6209660;23;20009;-61
2024/01/07 11:19:30;;;;;;;8.70;4.43;;;1.50;95.40;;;;;;6213117;23;20009;-61
2024/01/07 11:22:23;;;;;;;5.47;3.80;;;1.50;95.40;;;;;;6210702;23;20342;-61
2024/01/07 11:25:31;;;;;;;9.70;5.90;;;1.50;95.40;;;;;;6210708;23;20012;-61
2024/01/07 11:28:16;;;;;;;9.45;5.10;;;1.50;95.40;;;;;;6211692;23;20092;-61
2024/01/07 11:31:02;;;;;;;6.82;4.20;;;1.50;95.50;;;;;;6212244;23;20001;-61
2024/01/07 11:33:50;;;;;;;6.07;4.43;;;1.50;95.60;;;;;;6211077;23;20017;-61
2024/01/07 11:36:36;;;;;;;7.93;4.55;;;1.50;95.70;;;;;;6210951;23;20017;-61
2024/01/07 11:39:22;;;;;;;7.57;4.60;;;1.50;95.70;;;;;;6210132;23;20012;-61
2024/01/07 11:42:08;;;;;;;6.65;4.18;;;1.50;95.70;;;;;;6209315;23;20009;-61
2024/01/07 11:44:55;;;;;;;9.40;4.75;;;1.60;95.80;;;;;;6209516;23;20076;-61
2024/01/07 11:47:41;;;;;;;9.48;5.03;;;1.60;95.80;;;;;;6210880;23;20009;-61
2024/01/07 11:50:28;;;;;;;7.68;4.55;;;1.80;95.90;;;;;;6211885;23;20515;-61
2024/01/07 11:53:14;;;;;;;6.78;4.60;;;1.80;95.90;;;;;;6210672;23;20016;-61
2024/01/07 11:56:00;;;;;;;5.45;3.78;;;1.80;95.90;;;;;;6210862;23;20013;-61
2024/01/07 11:58:46;;;;;;;7.43;4.13;;;1.80;95.90;;;;;;6210473;23;20009;-61
2024/01/07 12:01:32;;;;;;;7.78;4.35;;;1.80;96.00;;;;;;6210200;23;20038;-61
2024/01/07 12:04:20;;;;;;;6.88;4.07;;;1.80;95.90;;;;;;6211054;23;20052;-61
2024/01/07 12:07:06;;;;;;;6.85;4.63;;;1.80;95.90;;;;;;6208135;23;20044;-63
2024/01/07 12:09:59;;;;;;;6.60;4.25;;;1.80;95.90;;;;;;6210217;23;20009;-63
2024/01/07 12:12:45;;;;;;;8.32;4.50;;;1.80;96.00;;;;;;6209127;23;20016;-62
2024/01/07 12:15:31;;;;;;;7.15;4.05;;;1.90;95.90;;;;;;6211143;23;20086;-61
2024/01/07 12:18:20;;;;;;;8.73;5.22;;;1.90;96.00;;;;;;6210247;23;20009;-62
2024/01/07 12:21:06;;;;;;;6.70;4.38;;;1.90;96.10;;;;;;6211119;23;20025;-61
2024/01/07 12:23:54;;;;;;;6.97;4.47;;;2.00;96.10;;;;;;6210305;23;20013;-61
2024/01/07 12:26:40;;;;;;;8.35;4.70;;;2.00;96.10;;;;;;6209071;23;20036;-61
2024/01/07 12:29:26;;;;;;;9.05;5.07;;;2.00;96.20;;;;;;6210379;23;20013;-61
2024/01/07 12:32:12;;;;;;;6.63;4.43;;;2.00;96.20;;;;;;6210350;23;20460;-61
2024/01/07 12:35:01;;;;;;;10.32;5.60;;;2.00;96.30;;;;;;6210075;23;20020;-61
2024/01/07 12:37:50;;;;;;;9.88;5.20;;;2.10;96.30;;;;;;6211391;23;20009;-61
2024/01/07 12:40:36;;;;;;;11.45;6.65;;;2.10;96.40;;;;;;6211327;23;20017;-62
2024/01/07 12:43:22;;;;;;;9.43;5.05;;;2.20;96.50;;;;;;6210540;23;20015;-61
2024/01/07 12:46:08;;;;;;;8.68;4.47;;;2.20;96.40;;;;;;6209061;23;20013;-61
2024/01/07 12:48:54;;;;;;;6.22;4.22;;;2.20;96.50;;;;;;6209228;23;20016;-61
2024/01/07 12:51:40;;;;;;;6.95;5.18;;;2.30;96.50;;;;;;6210936;23;20013;-61
2024/01/07 12:54:26;;;;;;;6.28;4.35;;;2.30;96.60;;;;;;6209059;23;20023;-61
2024/01/07 12:57:12;;;;;;;8.57;3.95;;;2.30;96.60;;;;;;6209773;23;20005;-61
2024/01/07 12:59:58;;;;;;;8.05;4.22;;;2.30;96.50;;;;;;6210796;23;20012;-61
2024/01/07 13:02:44;;;;;;;7.47;4.50;;;2.30;96.50;;;;;;6211050;23;20500;-61
2024/01/07 13:05:30;;;;;;;7.13;4.10;;;2.30;96.50;;;;;;6209878;23;20013;-61
2024/01/07 13:08:18;;;;;;;5.43;3.72;;;2.30;96.50;;;;;;6187142;23;20065;-61
2024/01/07 13:11:05;;;;;;;8.32;4.63;;;2.20;96.50;;;;;;6208954;23;20017;-61
2024/01/07 13:13:51;;;;;;;10.07;5.15;;;2.20;96.60;;;;;;6209851;23;20020;-62
2024/01/07 13:16:36;;;;;;;7.50;4.95;;;2.20;96.70;;;;;;6208438;23;20012;-61
2024/01/07 13:19:22;;;;;;;8.68;5.20;;;2.20;96.70;;;;;;6209602;23;20019;-61
2024/01/07 13:22:09;;;;;;;6.43;3.80;;;2.30;96.90;;;;;;6208669;23;20025;-61
2024/01/07 13:24:55;;;;;;;5.07;3.60;;;2.30;96.70;;;;;;6211986;23;20008;-63
2024/01/07 13:27:42;;;;;;;6.57;3.45;;;2.30;96.90;;;;;;6189425;23;20004;-62
2024/01/07 13:30:28;;;;;;;5.45;3.50;;;2.20;96.80;;;;;;6209766;23;20091;-62
2024/01/07 13:33:17;;;;;;;5.20;3.40;;;2.20;96.80;;;;;;6211342;23;20023;-61
2024/01/07 13:36:08;;;;;;;5.65;3.40;;;2.20;96.90;;;;;;6209921;23;20030;-62
2024/01/07 13:38:54;;;;;;;4.75;3.25;;;2.10;96.90;;;;;;6210581;23;20012;-61
2024/01/07 13:41:40;;;;;;;6.15;3.40;;;2.10;97.00;;;;;;6203333;23;20004;-62
2024/01/07 13:44:26;;;;;;;6.57;3.40;;;2.10;97.10;;;;;;6182367;23;20095;-61
2024/01/07 13:47:14;;;;;;;8.68;4.43;;;2.10;97.10;;;;;;6203118;23;20449;-61
2024/01/07 13:50:00;;;;;;;7.40;4.45;;;2.10;97.20;;;;;;6209866;23;20012;-62
2024/01/07 13:52:45;;;;;;;7.47;4.13;;;2.20;97.20;;;;;;6208062;23;20013;-62
2024/01/07 13:55:31;;;;;;;8.73;4.55;;;2.20;97.20;;;;;;6206715;23;20013;-62
2024/01/07 13:58:19;;;;;;;10.57;4.80;;;2.20;97.30;;;;;;6209399;23;20004;-62
2024/01/07 14:01:06;;;;;;;6.15;3.55;;;2.20;97.40;;;;;;6211379;23;20012;-61
2024/01/07 14:03:52;;;;;;;6.25;3.95;;;2.20;97.40;;;;;;6208204;23;20013;-62
2024/01/07 14:06:38;;;;;;;3.83;2.60;;;2.30;97.40;;;;;;6208297;23;20134;-62
2024/01/07 14:09:24;;;;;;;7.75;3.53;;;2.30;97.40;;;;;;6208412;23;20460;-62
2024/01/07 14:12:10;;;;;;;6.28;3.70;;;2.20;97.50;;;;;;6209840;23;20032;-62
2024/01/07 14:14:56;;;;;;;6.55;4.28;;;2.10;97.30;;;;;;6206926;23;20017;-62
2024/01/07 14:17:43;;;;;;;8.43;4.60;;;2.10;97.40;;;;;;6193368;23;20019;-62
2024/01/07 14:20:29;;;;;;;6.53;4.13;;;2.10;97.40;;;;;;6237940;23;20020;-62
2024/01/07 14:23:15;;;;;;;4.90;3.22;;;2.10;97.50;;;;;;6224844;23;20354;-62
2024/01/07 14:26:01;;;;;;;5.57;3.38;;;2.10;97.50;;;;;;6209834;23;20161;-62
2024/01/07 14:28:47;;;;;;;6.97;3.15;;;2.00;97.60;;;;;;6210110;23;20063;-62
2024/01/07 14:31:33;;;;;;;5.97;2.85;;;2.00;97.60;;;;;;6211755;23;20062;-63
2024/01/07 14:34:20;;;;;;;4.50;3.50;;;2.10;97.60;;;;;;6213795;23;20135;-62
2024/01/07 14:37:06;;;;;;;7.53;4.20;;;2.10;97.70;;;;;;6210681;23;20017;-62
2024/01/07 14:39:52;;;;;;;4.13;2.97;;;2.10;97.70;;;;;;6211352;23;20042;-62
2024/01/07 14:42:38;;;;;;;5.30;2.97;;;2.10;97.70;;;;;;6212678;23;20020;-62
2024/01/07 14:45:27;;;;;;;5.50;3.47;;;2.10;97.80;;;;;;6188879;23;20009;-62
2024/01/07 14:48:14;;;;;;;6.72;3.65;;;2.00;97.80;;;;;;6211350;23;20012;-62
2024/01/07 14:51:01;;;;;;;6.13;3.60;;;2.10;97.80;;;;;;6210917;23;20041;-62
2024/01/07 14:53:47;;;;;;;6.80;3.15;;;2.00;97.80;;;;;;6211959;23;20017;-62
2024/01/07 14:56:33;;;;;;;5.55;3.55;;;2.10;97.90;;;;;;6208680;23;20009;-63
2024/01/07 14:59:19;;;;;;;6.90;3.20;;;2.10;97.90;;;;;;6211558;23;20074;-63
2024/01/07 15:02:05;;;;;;;6.22;3.83;;;2.10;97.90;;;;;;6210390;23;20018;-62
2024/01/07 15:04:54;;;;;;;6.97;3.70;;;2.20;97.90;;;;;;6211240;23;20019;-64
2024/01/07 15:07:39;;;;;;;6.97;3.67;;;2.10;97.90;;;;;;6211607;23;20464;-63
2024/01/07 15:10:25;;;;;;;5.22;3.45;;;2.10;98.00;;;;;;6211255;23;20044;-63
2024/01/07 15:13:11;;;;;;;5.25;3.53;;;2.10;98.00;;;;;;6189125;23;20020;-63
2024/01/07 15:15:57;;;;;;;5.18;3.00;;;2.20;98.10;;;;;;6210777;23;20458;-63
2024/01/07 15:18:43;;;;;;;4.68;3.25;;;2.20;98.10;;;;;;6210362;23;20020;-62
2024/01/07 15:21:30;;;;;;;6.95;3.22;;;2.20;98.00;;;;;;6211440;23;20021;-62
2024/01/07 15:24:15;;;;;;;5.90;3.08;;;2.20;97.90;;;;;;6211029;23;20023;-62
2024/01/07 15:27:01;;;;;;;6.05;4.03;;;2.10;97.90;;;;;;6210465;23;20365;-61
2024/01/07 15:29:47;;;;;;;6.10;3.30;;;2.00;97.90;;;;;;6210035;23;20036;-62
2024/01/07 15:32:34;;;;;;;5.47;3.60;;;2.00;97.90;;;;;;6210357;23;20040;-62
2024/01/07 15:35:19;;;;;;;6.40;3.33;;;2.00;97.90;;;;;;6210893;23;20023;-62
2024/01/07 15:38:06;;;;;;;5.18;3.33;;;2.00;97.90;;;;;;6210654;23;20484;-63
2024/01/07 15:40:51;;;;;;;5.07;3.17;;;2.00;97.80;;;;;;6212286;23;20038;-64
2024/01/07 15:43:38;;;;;;;5.97;3.40;;;1.90;97.70;;;;;;6190880;23;20021;-62
2024/01/07 15:46:23;;;;;;;6.20;3.45;;;1.90;97.70;;;;;;6209372;23;20464;-63
2024/01/07 15:49:09;;;;;;;5.25;3.33;;;1.90;97.60;;;;;;6210621;23;20009;-63
2024/01/07 15:51:55;;;;;;;6.63;3.60;;;1.90;97.60;;;;;;6207460;23;20104;-63
2024/01/07 15:54:41;;;;;;;6.35;3.42;;;1.90;97.60;;;;;;6209216;23;20024;-62
2024/01/07 15:57:27;;;;;;;7.38;4.60;;;2.00;97.60;;;;;;6212085;23;20009;-63
2024/01/07 16:00:13;;;;;;;9.40;4.63;;;2.00;97.50;;;;;;6210049;23;20100;-63
2024/01/07 16:02:59;;;;;;;6.03;3.47;;;2.00;97.40;;;;;;6210810;23;20091;-63
2024/01/07 16:05:45;;;;;;;6.70;3.95;;;2.00;97.30;;;;;;6209850;23;20017;-63
2024/01/07 16:08:32;;;;;;;6.70;4.68;;;1.90;97.00;;;;;;6207547;23;20448;-63
2024/01/07 16:11:18;;;;;;;6.53;3.95;;;1.80;96.60;;;;;;6188715;23;20013;-64
2024/01/07 16:14:04;;;;;;;6.40;4.32;;;1.80;96.70;;;;;;6212178;23;20473;-64
2024/01/07 16:16:50;;;;;;;5.80;4.07;;;1.70;96.70;;;;;;6210509;23;20066;-62
2024/01/07 16:19:36;;;;;;;6.60;4.10;;;1.70;96.30;;;;;;6212030;23;20012;-69
2024/01/07 16:22:22;;;;;;;6.15;3.85;;;1.60;96.10;;;;;;6196840;23;20350;-70
2024/01/07 16:25:08;;;;;;;6.63;4.25;;;1.60;96.10;;;;;;6209414;23;20036;-69
2024/01/07 16:27:54;;;;;;;7.47;4.38;;;1.60;96.10;;;;;;6186164;23;20012;-69
2024/01/07 16:30:40;;;;;;;7.22;4.32;;;1.50;95.90;;;;;;6211222;23;20004;-69
2024/01/07 16:33:26;;;;;;;5.47;3.85;;;1.50;95.90;;;;;;6210166;23;20016;-70
2024/01/07 16:36:13;;;;;;;6.55;3.83;;;1.50;96.00;;;;;;6210391;23;20013;-69
2024/01/07 16:39:01;;;;;;;10.07;4.25;;;1.60;96.00;;;;;;6211020;23;20040;-70
2024/01/07 16:41:47;;;;;;;6.88;3.92;;;1.60;95.90;;;;;;6212579;23;20016;-70
2024/01/07 16:44:33;;;;;;;8.48;5.10;;;1.50;95.40;;;;;;6208311;23;20166;-69
2024/01/07 16:47:19;;;;;;;6.15;3.65;;;1.50;95.50;;;;;;6206645;23;20437;-69
2024/01/07 16:50:05;;;;;;;9.60;4.18;;;1.40;95.50;;;;;;6208256;23;20012;-69
2024/01/07 16:52:53;;;;;;;6.05;3.75;;;1.40;95.50;;;;;;6208127;23;20008;-69
2024/01/07 16:55:39;;;;;;;8.57;4.32;;;1.40;95.40;;;;;;6210661;23;20052;-69
2024/01/07 16:58:24;;;;;;;7.22;3.60;;;1.40;95.50;;;;;;6183023;23;20004;-70
2024/01/07 17:01:10;;;;;;;7.45;3.92;;;1.40;95.60;;;;;;6206648;23;20020;-70
2024/01/07 17:03:56;;;;;;;7.20;4.28;;;1.40;95.60;;;;;;6207460;23;20005;-71
2024/01/07 17:06:42;;;;;;;7.50;3.92;;;1.40;95.20;;;;;;6208327;23;20390;-70
2024/01/07 17:09:28;;;;;;;5.90;3.92;;;1.30;95.30;;;;;;6210204;23;20011;-70
2024/01/07 17:12:15;;;;;;;8.38;4.28;;;1.30;95.30;;;;;;6210138;23;20095;-70
2024/01/07 17:15:03;;;;;;;7.78;4.55;;;1.20;95.30;;;;;;6212333;23;20016;-70
2024/01/07 17:17:50;;;;;;;7.05;4.57;;;1.20;95.30;;;;;;6209625;23;20020;-68
2024/01/07 17:20:38;;;;;;;6.10;4.30;;;1.20;95.40;;;;;;6207899;23;20519;-72
2024/01/07 17:23:24;;;;;;;6.28;3.63;;;1.20;95.40;;;;;;6210566;23;20012;-71
2024/01/07 17:26:10;;;;;;;7.13;3.90;;;1.20;95.50;;;;;;6210369;23;20009;-71
2024/01/07 17:28:56;;;;;;;8.40;4.70;;;1.20;95.50;;;;;;6206650;23;20449;-70
2024/01/07 17:31:42;;;;;;;6.05;4.10;;;1.30;95.60;;;;;;6206557;23;20023;-70
2024/01/07 17:34:28;;;;;;;6.88;3.92;;;1.30;95.50;;;;;;6188817;23;20024;-71
2024/01/07 17:37:14;;;;;;;7.10;4.57;;;1.30;95.50;;;;;;6210107;23;20036;-71
2024/01/07 17:40:00;;;;;;;9.15;4.32;;;1.30;95.60;;;;;;6216253;23;20059;-70
2024/01/07 17:42:46;;;;;;;6.55;4.63;;;1.20;95.60;;;;;;6238261;23;20012;-71
2024/01/07 17:45:32;;;;;;;7.78;4.75;;;1.30;95.60;;;;;;6225425;23;20012;-71
2024/01/07 17:48:18;;;;;;;7.43;5.05;;;1.30;95.70;;;;;;6227221;23;20020;-71
2024/01/07 17:51:04;;;;;;;7.28;4.85;;;1.40;95.70;;;;;;6193869;23;20015;-71
2024/01/07 17:53:50;;;;;;;7.85;4.80;;;1.30;95.50;;;;;;6211351;23;20079;-72
2024/01/07 17:56:36;;;;;;;6.50;4.63;;;1.30;95.60;;;;;;6212007;23;20013;-69
2024/01/07 17:59:22;;;;;;;6.75;4.63;;;1.30;95.60;;;;;;6209144;23;20017;-70